Time;durP1;ratioP1;P1;durP2;ratioP2;P2;SDS_P1;SDS_P2;PMS_P1;PMS_P2;Temp;Humidity;BMP_temperature;BMP_pressure;BME280_temperature;BME280_humidity;BME280_pressure;Samples;Min_cycle;Max_cycle;Signal;HPM_P1;HPM_P2
2022/10/01 00:00:04;;;;;;;;;5.25;5.25;26.00;99.90;;;;;;5003677;28;8865;-57
2022/10/01 00:02:38;;;;;;;;;5.00;5.00;25.90;99.90;;;;;;5000507;28;8848;-66
2022/10/01 00:05:11;;;;;;;;;3.00;3.00;25.90;99.90;;;;;;4996455;28;8847;-63
2022/10/01 00:07:45;;;;;;;;;4.00;4.00;25.90;99.90;;;;;;4999549;28;8896;-62
2022/10/01 00:10:15;;;;;;;;;5.50;5.50;25.80;99.90;;;;;;4983210;28;8834;-64
2022/10/01 00:12:48;;;;;;;;;5.75;5.75;25.80;99.90;;;;;;5004906;28;8858;-57
2022/10/01 00:15:20;;;;;;;;;5.00;5.00;25.70;99.90;;;;;;4982173;28;8841;-58
2022/10/01 00:17:54;;;;;;;;;5.50;5.50;25.60;99.90;;;;;;4993783;28;8889;-60
2022/10/01 00:20:26;;;;;;;;;4.75;4.75;25.50;99.90;;;;;;4973279;28;8866;-62
2022/10/01 00:22:58;;;;;;;;;4.75;4.75;25.50;99.90;;;;;;4978248;28;8857;-62
2022/10/01 00:25:30;;;;;;;;;4.75;4.75;25.40;99.90;;;;;;5005947;28;8881;-63
2022/10/01 00:28:03;;;;;;;;;5.00;5.00;25.30;99.90;;;;;;4997308;28;9671;-55
2022/10/01 00:30:37;;;;;;;;;6.75;6.75;25.10;99.90;;;;;;4995458;28;8846;-57
2022/10/01 00:33:10;;;;;;;;;5.00;5.00;25.00;99.90;;;;;;4984200;28;8853;-57
2022/10/01 00:35:43;;;;;;;;;3.75;3.75;24.90;99.90;;;;;;4983663;28;8880;-57
2022/10/01 00:38:15;;;;;;;;;4.50;4.25;24.80;99.90;;;;;;4981119;28;9866;-56
2022/10/01 00:40:47;;;;;;;;;6.00;6.00;24.70;99.90;;;;;;5008501;28;8819;-57
2022/10/01 00:43:27;;;;;;;;;5.00;5.00;24.60;99.90;;;;;;4988702;28;8970;-57
2022/10/01 00:46:25;;;;;;;;;6.00;6.00;24.60;99.90;;;;;;5002108;28;8980;-56
2022/10/01 00:49:05;;;;;;;;;5.75;5.75;24.60;99.90;;;;;;5000161;28;10045;-56
2022/10/01 00:51:44;;;;;;;;;5.25;5.25;24.60;99.90;;;;;;4972042;28;8910;-52
2022/10/01 00:54:30;;;;;;;;;6.00;6.00;24.50;99.90;;;;;;4974294;28;8872;-61
2022/10/01 00:57:02;;;;;;;;;5.00;5.00;24.30;99.90;;;;;;4997085;28;8822;-64
2022/10/01 00:59:36;;;;;;;;;5.00;5.00;24.30;99.90;;;;;;5000033;28;8845;-63
2022/10/01 01:02:05;;;;;;;;;5.75;5.75;24.10;99.90;;;;;;5000693;28;9010;-62
2022/10/01 01:04:38;;;;;;;;;6.00;6.00;24.10;99.90;;;;;;4995780;28;8883;-63
2022/10/01 01:07:09;;;;;;;;;7.00;7.00;24.00;99.90;;;;;;4999109;28;8837;-62
2022/10/01 01:09:57;;;;;;;;;5.75;5.75;23.80;99.90;;;;;;4987593;28;8873;-66
2022/10/01 01:13:04;;;;;;;;;5.25;5.25;23.80;99.90;;;;;;4999163;28;8872;-64
2022/10/01 01:15:41;;;;;;;;;5.00;5.00;23.80;99.90;;;;;;4987834;28;8885;-57
2022/10/01 01:18:39;;;;;;;;;7.00;7.00;23.70;99.90;;;;;;5000490;28;8840;-55
2022/10/01 01:21:36;;;;;;;;;5.50;5.50;23.50;99.90;;;;;;4997068;28;8886;-55
2022/10/01 01:24:34;;;;;;;;;3.25;3.25;23.50;99.90;;;;;;4997272;28;8855;-65
2022/10/01 01:27:25;;;;;;;;;5.50;5.50;23.30;99.90;;;;;;4999520;28;8822;-63
2022/10/01 01:30:08;;;;;;;;;5.00;5.00;23.20;99.90;;;;;;5000407;28;8825;-65
2022/10/01 01:32:47;;;;;;;;;7.00;6.25;23.20;99.90;;;;;;4986083;28;9624;-65
2022/10/01 01:35:32;;;;;;;;;7.00;7.00;23.10;99.90;;;;;;4975821;28;8848;-58
2022/10/01 01:38:11;;;;;;;;;8.25;8.25;23.10;99.90;;;;;;4983391;28;8833;-65
2022/10/01 01:40:45;;;;;;;;;6.50;6.50;23.00;99.90;;;;;;5000612;28;8845;-64
2022/10/01 01:43:22;;;;;;;;;4.75;4.75;23.00;99.90;;;;;;4992106;28;8877;-56
2022/10/01 01:45:53;;;;;;;;;6.50;6.50;23.00;99.90;;;;;;4997893;28;8885;-55
2022/10/01 01:48:26;;;;;;;;;6.25;6.00;23.00;99.90;;;;;;4994407;28;8850;-62
2022/10/01 01:50:59;;;;;;;;;7.00;7.00;23.00;99.90;;;;;;4960593;28;8881;-63
2022/10/01 01:53:31;;;;;;;;;5.50;5.50;22.90;99.90;;;;;;4982048;28;8842;-64
2022/10/01 01:56:02;;;;;;;;;8.25;8.25;22.90;99.90;;;;;;4992495;28;8846;-63
2022/10/01 01:58:34;;;;;;;;;9.00;9.00;22.80;99.90;;;;;;4993260;28;8857;-62
2022/10/01 02:01:06;;;;;;;;;7.25;7.25;22.80;99.90;;;;;;4995704;28;8903;-62
2022/10/01 02:03:42;;;;;;;;;7.00;7.00;22.80;99.90;;;;;;4994953;28;8984;-56
2022/10/01 02:06:48;;;;;;;;;4.25;4.25;22.70;99.90;;;;;;4996459;28;8881;-57
2022/10/01 02:09:28;;;;;;;;;6.50;6.50;22.60;99.90;;;;;;4994031;28;8850;-62
2022/10/01 02:12:40;;;;;;;;;9.25;9.25;22.60;99.90;;;;;;4976746;28;9577;-63
2022/10/01 02:15:54;;;;;;;;;8.00;8.00;22.50;99.90;;;;;;4994797;28;8861;-54
2022/10/01 02:18:29;;;;;;;;;7.25;7.00;22.50;99.90;;;;;;4938776;28;8849;-53
2022/10/01 02:21:30;;;;;;;;;7.00;7.00;22.60;99.90;;;;;;4940055;28;8831;-57
2022/10/01 02:24:19;;;;;;;;;7.25;7.25;22.70;99.90;;;;;;4988657;28;8852;-55
2022/10/01 02:26:54;;;;;;;;;6.00;6.00;22.70;99.90;;;;;;4989907;28;8831;-55
2022/10/01 02:29:24;;;;;;;;;8.75;8.75;22.60;99.90;;;;;;4995717;28;8845;-53
2022/10/01 02:31:57;;;;;;;;;3.00;3.00;22.70;99.90;;;;;;4982078;28;8838;-56
2022/10/01 02:34:30;;;;;;;;;8.00;8.00;22.60;99.90;;;;;;4997961;28;8857;-55
2022/10/01 02:37:03;;;;;;;;;6.25;6.25;22.60;99.90;;;;;;4992750;28;8861;-55
2022/10/01 02:39:35;;;;;;;;;8.00;8.00;22.60;99.90;;;;;;4982486;28;8885;-55
2022/10/01 02:42:08;;;;;;;;;8.00;8.00;22.60;99.90;;;;;;4997825;28;8826;-52
2022/10/01 02:44:41;;;;;;;;;4.25;4.25;22.50;99.90;;;;;;4980300;28;8853;-56
2022/10/01 02:47:20;;;;;;;;;9.75;8.50;22.50;99.90;;;;;;5006692;28;8836;-56
2022/10/01 02:49:52;;;;;;;;;8.25;8.25;22.50;99.90;;;;;;4994772;28;8837;-62
2022/10/01 02:52:22;;;;;;;;;6.25;6.25;22.50;99.90;;;;;;4989398;28;8840;-61
2022/10/01 02:55:10;;;;;;;;;6.75;6.75;22.50;99.90;;;;;;4998992;28;8880;-62
2022/10/01 02:57:41;;;;;;;;;8.00;8.00;22.40;99.90;;;;;;4996038;28;8823;-61
2022/10/01 03:00:20;;;;;;;;;8.50;7.25;22.40;99.90;;;;;;4995359;28;8850;-55
2022/10/01 03:02:50;;;;;;;;;7.00;7.00;22.30;99.90;;;;;;5002446;28;8832;-56
2022/10/01 03:05:21;;;;;;;;;6.75;6.75;22.30;99.90;;;;;;4978912;28;8846;-56
2022/10/01 03:07:54;;;;;;;;;8.00;8.00;22.20;99.90;;;;;;4994234;28;9937;-55
2022/10/01 03:10:26;;;;;;;;;8.00;8.00;22.20;99.90;;;;;;4980996;28;8855;-55
2022/10/01 03:13:00;;;;;;;;;7.25;7.25;22.10;99.90;;;;;;4997856;28;8846;-61
2022/10/01 03:15:32;;;;;;;;;7.75;7.75;22.00;99.90;;;;;;4997306;28;8848;-61
2022/10/01 03:18:02;;;;;;;;;7.75;7.75;22.10;99.90;;;;;;5000015;28;8829;-53
2022/10/01 03:20:35;;;;;;;;;6.50;6.50;22.00;99.90;;;;;;4992433;28;8845;-55
2022/10/01 03:23:05;;;;;;;;;7.50;7.50;21.90;99.90;;;;;;4993400;28;8908;-62
2022/10/01 03:25:35;;;;;;;;;5.75;5.50;22.00;99.90;;;;;;4997343;28;8907;-66
2022/10/01 03:28:05;;;;;;;;;7.00;7.00;22.00;99.90;;;;;;4997079;28;8818;-60
2022/10/01 03:30:37;;;;;;;;;5.00;5.00;22.00;99.90;;;;;;5000052;28;9614;-61
2022/10/01 03:33:09;;;;;;;;;6.00;6.00;22.20;99.90;;;;;;4995240;28;8866;-55
2022/10/01 03:35:42;;;;;;;;;5.50;5.50;22.10;99.90;;;;;;4965543;28;8837;-57
2022/10/01 03:38:14;;;;;;;;;7.00;7.00;22.00;99.90;;;;;;4992454;28;8857;-54
2022/10/01 03:40:43;;;;;;;;;6.25;6.25;21.90;99.90;;;;;;4995798;28;8880;-56
2022/10/01 03:43:14;;;;;;;;;4.75;4.75;21.90;99.90;;;;;;4996153;28;8850;-61
2022/10/01 03:45:45;;;;;;;;;6.25;6.25;21.80;99.90;;;;;;4997745;28;8893;-61
2022/10/01 03:48:17;;;;;;;;;6.50;6.50;21.60;99.90;;;;;;4981594;28;8837;-60
2022/10/01 03:50:58;;;;;;;;;5.50;5.50;21.50;99.90;;;;;;4995700;28;8853;-61
2022/10/01 03:53:30;;;;;;;;;7.00;7.00;21.50;99.90;;;;;;5000189;28;8854;-53
2022/10/01 03:56:03;;;;;;;;;6.25;6.25;21.40;99.90;;;;;;4997357;28;8848;-52
2022/10/01 03:58:33;;;;;;;;;6.25;6.25;21.30;99.90;;;;;;4993401;28;8860;-63
2022/10/01 04:01:04;;;;;;;;;6.50;6.50;21.30;99.90;;;;;;4997048;28;8850;-63
2022/10/01 04:03:35;;;;;;;;;6.00;6.00;21.10;99.90;;;;;;4966539;28;8845;-55
2022/10/01 04:06:06;;;;;;;;;7.25;7.25;21.10;99.90;;;;;;5000011;28;9546;-56
2022/10/01 04:08:37;;;;;;;;;3.00;3.00;21.20;99.90;;;;;;4980687;28;8876;-64
2022/10/01 04:11:08;;;;;;;;;6.00;6.00;21.30;99.90;;;;;;4998474;28;8914;-65
2022/10/01 04:13:38;;;;;;;;;5.25;5.25;21.30;99.90;;;;;;4999533;28;8838;-64
2022/10/01 04:16:09;;;;;;;;;5.00;5.00;21.30;99.90;;;;;;4999197;28;8890;-65
2022/10/01 04:18:41;;;;;;;;;6.75;6.00;21.20;99.90;;;;;;4994290;28;8875;-65
2022/10/01 04:21:14;;;;;;;;;6.50;6.25;21.30;99.90;;;;;;4993488;28;8837;-66
2022/10/01 04:23:43;;;;;;;;;7.50;6.00;21.20;99.90;;;;;;4995236;28;8889;-56
2022/10/01 04:26:17;;;;;;;;;5.00;5.00;21.10;99.90;;;;;;4994638;28;8867;-57
2022/10/01 04:28:48;;;;;;;;;6.00;6.00;21.10;99.90;;;;;;4992517;28;8917;-65
2022/10/01 04:31:24;;;;;;;;;5.50;5.50;21.10;99.90;;;;;;4994525;28;8875;-66
2022/10/01 04:33:57;;;;;;;;;6.75;6.25;21.00;99.90;;;;;;4993309;28;8848;-65
2022/10/01 04:36:28;;;;;;;;;5.00;5.00;21.00;99.90;;;;;;4993600;28;9651;-66
2022/10/01 04:38:58;;;;;;;;;5.75;5.75;21.00;99.90;;;;;;4994496;28;8866;-64
2022/10/01 04:41:34;;;;;;;;;4.75;4.75;21.00;99.90;;;;;;4984267;28;8842;-64
2022/10/01 04:44:06;;;;;;;;;6.00;6.00;21.00;99.90;;;;;;4994222;28;8825;-54
2022/10/01 04:46:38;;;;;;;;;4.50;4.50;20.90;99.90;;;;;;4989644;28;8873;-56
2022/10/01 04:49:09;;;;;;;;;4.00;4.00;20.90;99.90;;;;;;4993194;28;8849;-65
2022/10/01 04:51:41;;;;;;;;;6.00;6.00;20.80;99.90;;;;;;4971820;28;8846;-65
2022/10/01 04:54:10;;;;;;;;;6.00;6.00;20.70;99.90;;;;;;4993224;28;8859;-64
2022/10/01 04:56:43;;;;;;;;;6.50;5.00;20.70;99.90;;;;;;4992205;28;8976;-65
2022/10/01 04:59:13;;;;;;;;;5.75;5.75;20.70;99.90;;;;;;4994141;28;8868;-55
2022/10/01 05:01:44;;;;;;;;;5.25;5.25;20.70;99.90;;;;;;4994383;28;8882;-57
2022/10/01 05:04:14;;;;;;;;;4.75;4.75;20.60;99.90;;;;;;4989277;28;8858;-56
2022/10/01 05:06:46;;;;;;;;;5.00;5.00;20.50;99.90;;;;;;4990434;28;8858;-55
2022/10/01 05:09:19;;;;;;;;;4.00;4.00;20.30;99.90;;;;;;4991176;28;8845;-64
2022/10/01 05:11:52;;;;;;;;;5.25;5.25;20.30;99.90;;;;;;4991584;28;8864;-64
2022/10/01 05:14:25;;;;;;;;;4.25;4.25;20.40;99.90;;;;;;4992528;28;9293;-56
2022/10/01 05:16:57;;;;;;;;;6.25;6.00;20.40;99.90;;;;;;4990564;28;8920;-56
2022/10/01 05:19:29;;;;;;;;;5.00;5.00;20.50;99.90;;;;;;4993294;28;8826;-65
2022/10/01 05:22:03;;;;;;;;;6.00;6.00;20.50;99.90;;;;;;4989901;28;10302;-64
2022/10/01 05:24:36;;;;;;;;;5.50;5.50;20.30;99.90;;;;;;4993903;28;8893;-57
2022/10/01 05:27:09;;;;;;;;;4.00;4.00;20.20;99.90;;;;;;4973515;28;9472;-55
2022/10/01 05:29:43;;;;;;;;;4.75;4.75;20.10;99.90;;;;;;4978225;28;8830;-63
2022/10/01 05:32:12;;;;;;;;;5.00;5.00;20.20;99.90;;;;;;4991547;28;8860;-66
2022/10/01 05:34:43;;;;;;;;;6.50;6.50;20.10;99.90;;;;;;4991577;28;8870;-54
2022/10/01 05:37:19;;;;;;;;;5.25;5.25;20.00;99.90;;;;;;4960881;28;8845;-55
2022/10/01 05:39:49;;;;;;;;;4.00;4.00;20.00;99.90;;;;;;4992775;28;8855;-55
2022/10/01 05:42:20;;;;;;;;;4.00;4.00;20.00;99.90;;;;;;4993805;28;8956;-56
2022/10/01 05:44:50;;;;;;;;;7.00;7.00;20.10;99.90;;;;;;4989866;28;8878;-64
2022/10/01 05:47:21;;;;;;;;;5.00;5.00;20.30;99.90;;;;;;4988147;28;8872;-63
2022/10/01 05:49:50;;;;;;;;;4.00;4.00;20.30;99.90;;;;;;4993100;28;8884;-52
2022/10/01 05:52:21;;;;;;;;;3.75;3.75;20.20;99.90;;;;;;4989811;28;8876;-55
2022/10/01 05:54:54;;;;;;;;;4.25;4.25;20.20;99.90;;;;;;4971735;28;8846;-65
2022/10/01 05:57:26;;;;;;;;;4.75;4.75;20.00;99.90;;;;;;4989215;28;8822;-65
2022/10/01 05:59:57;;;;;;;;;5.00;5.00;19.70;99.90;;;;;;4990600;28;8850;-56
2022/10/01 06:02:27;;;;;;;;;4.25;4.25;19.50;99.90;;;;;;4992678;28;8829;-54
2022/10/01 06:04:59;;;;;;;;;4.00;4.00;19.50;99.90;;;;;;4992880;28;8877;-53
2022/10/01 06:07:33;;;;;;;;;3.67;3.67;19.40;99.90;;;;;;4993123;28;8916;-52
2022/10/01 06:10:03;;;;;;;;;5.50;4.00;19.50;99.90;;;;;;4993332;28;8856;-55
2022/10/01 06:12:37;;;;;;;;;4.50;4.50;19.30;99.90;;;;;;4991429;28;9651;-54
2022/10/01 06:15:10;;;;;;;;;4.75;4.75;19.30;99.90;;;;;;4991900;28;8853;-55
2022/10/01 06:17:44;;;;;;;;;5.00;4.25;19.10;99.90;;;;;;4987047;28;10208;-55
2022/10/01 06:20:18;;;;;;;;;4.50;4.25;19.10;99.90;;;;;;4991098;28;8818;-65
2022/10/01 06:22:57;;;;;;;;;6.00;6.00;19.00;99.90;;;;;;4991362;28;8844;-54
2022/10/01 06:25:30;;;;;;;;;4.00;4.00;19.00;99.90;;;;;;4988874;28;10049;-54
2022/10/01 06:27:59;;;;;;;;;4.00;4.00;19.00;99.90;;;;;;4971284;28;8886;-54
2022/10/01 06:30:34;;;;;;;;;6.00;6.00;19.10;99.90;;;;;;4993858;28;8915;-53
2022/10/01 06:33:10;;;;;;;;;4.50;3.50;19.00;99.90;;;;;;4992284;28;9024;-55
2022/10/01 06:35:46;;;;;;;;;3.75;3.75;18.90;99.90;;;;;;4992020;28;9022;-55
2022/10/01 06:38:18;;;;;;;;;5.33;5.33;18.90;99.90;;;;;;4990274;28;8861;-54
2022/10/01 06:40:56;;;;;;;;;4.00;4.00;18.90;99.90;;;;;;4993073;28;8949;-54
2022/10/01 06:43:32;;;;;;;;;4.75;4.75;18.80;99.90;;;;;;4990947;28;9696;-63
2022/10/01 06:46:05;;;;;;;;;2.00;2.00;18.70;99.90;;;;;;4992011;28;9632;-64
2022/10/01 06:48:37;;;;;;;;;3.25;3.25;18.60;99.90;;;;;;4989234;28;8842;-54
2022/10/01 06:51:09;;;;;;;;;6.00;6.00;18.50;99.90;;;;;;4988920;28;8861;-55
2022/10/01 06:53:40;;;;;;;;;5.33;5.33;18.50;99.90;;;;;;4990060;28;8854;-56
2022/10/01 06:56:10;;;;;;;;;4.50;4.50;18.30;99.90;;;;;;4973277;28;8924;-55
2022/10/01 06:58:42;;;;;;;;;3.00;3.00;18.40;99.90;;;;;;4998263;28;9619;-60
2022/10/01 07:01:12;;;;;;;;;5.00;5.00;18.30;99.90;;;;;;4989152;28;9081;-54
2022/10/01 07:03:44;;;;;;;;;4.75;4.75;18.20;99.90;;;;;;4992554;28;9019;-57
2022/10/01 07:06:15;;;;;;;;;3.25;3.25;18.20;99.90;;;;;;4977962;28;9609;-54
2022/10/01 07:08:49;;;;;;;;;3.00;3.00;18.20;99.90;;;;;;4985201;28;8834;-55
2022/10/01 07:11:19;;;;;;;;;3.67;3.67;18.10;99.90;;;;;;4994490;28;8958;-55
2022/10/01 07:13:51;;;;;;;;;5.00;5.00;18.00;99.90;;;;;;4980724;28;8954;-55
2022/10/01 07:16:24;;;;;;;;;5.67;5.67;18.00;99.90;;;;;;4996943;28;9079;-56
2022/10/01 07:18:59;;;;;;;;;5.00;5.00;18.00;99.90;;;;;;4997038;28;9280;-56
2022/10/01 07:21:31;;;;;;;;;6.33;5.00;18.10;99.90;;;;;;4993031;28;8941;-56
2022/10/01 07:24:02;;;;;;;;;5.00;5.00;17.90;99.90;;;;;;4990913;28;9591;-56
2022/10/01 07:26:34;;;;;;;;;6.33;6.33;17.90;99.90;;;;;;5000247;28;9071;-55
2022/10/01 07:29:05;;;;;;;;;4.33;4.33;17.90;99.90;;;;;;4981981;28;9875;-64
2022/10/01 07:31:40;;;;;;;;;4.00;4.00;18.00;99.90;;;;;;4997574;28;9012;-64
2022/10/01 07:34:10;;;;;;;;;7.00;7.00;18.00;99.90;;;;;;4996191;28;8935;-55
2022/10/01 07:36:45;;;;;;;;;5.33;5.33;17.90;99.90;;;;;;4997434;28;9088;-56
2022/10/01 07:39:15;;;;;;;;;6.33;6.33;17.80;99.90;;;;;;5002383;28;9235;-56
2022/10/01 07:41:47;;;;;;;;;1.00;1.00;17.90;99.90;;;;;;4996418;28;9331;-56
2022/10/01 07:44:19;;;;;;;;;5.67;5.67;17.70;99.90;;;;;;4978147;28;9151;-63
2022/10/01 07:46:50;;;;;;;;;6.33;6.00;17.80;99.90;;;;;;4978111;28;9173;-64
2022/10/01 07:49:27;;;;;;;;;5.33;5.33;17.90;99.90;;;;;;4993395;28;9342;-64
2022/10/01 07:51:57;;;;;;;;;6.00;6.00;17.90;99.90;;;;;;4990306;28;9345;-63
2022/10/01 07:54:29;;;;;;;;;6.00;6.00;17.80;99.90;;;;;;4968812;28;10236;-64
2022/10/01 07:57:00;;;;;;;;;4.33;4.33;17.80;99.90;;;;;;4982188;28;9263;-64
2022/10/01 07:59:32;;;;;;;;;7.00;7.00;17.60;99.90;;;;;;5000492;28;9307;-64
2022/10/01 08:02:03;;;;;;;;;7.00;7.00;17.50;99.90;;;;;;4999594;28;9288;-64
2022/10/01 08:07:24;;;;;;;;;6.00;6.00;17.50;99.90;;;;;;5008620;28;9317;-63
2022/10/01 08:09:54;;;;;;;;;5.00;5.00;17.30;99.90;;;;;;5009826;28;9549;-56
2022/10/01 08:12:27;;;;;;;;;6.00;5.00;17.20;99.90;;;;;;4987885;28;9410;-56
2022/10/01 08:14:57;;;;;;;;;6.33;6.33;17.10;99.90;;;;;;4988157;28;9553;-55
2022/10/01 08:17:27;;;;;;;;;4.67;4.67;17.10;99.90;;;;;;4981542;28;9471;-55
2022/10/01 08:19:58;;;;;;;;;7.33;7.00;17.10;99.90;;;;;;5002837;28;9550;-63
2022/10/01 08:22:29;;;;;;;;;4.67;4.67;17.00;99.90;;;;;;4999471;28;9421;-63
2022/10/01 08:24:59;;;;;;;;;5.67;5.67;17.00;99.90;;;;;;5006138;28;9295;-52
2022/10/01 08:27:36;;;;;;;;;6.00;6.00;17.20;99.90;;;;;;5003663;28;9503;-56
2022/10/01 08:30:07;;;;;;;;;5.33;5.33;17.10;99.90;;;;;;5006760;28;9456;-63
2022/10/01 08:32:39;;;;;;;;;4.67;4.67;17.00;99.90;;;;;;4999328;28;9720;-64
2022/10/01 08:35:09;;;;;;;;;4.33;4.33;17.00;99.90;;;;;;5002496;28;10274;-64
2022/10/01 08:37:40;;;;;;;;;6.00;6.00;17.10;99.90;;;;;;5007935;28;9348;-64
2022/10/01 08:40:10;;;;;;;;;7.00;7.00;17.10;99.90;;;;;;4997384;28;9592;-64
2022/10/01 08:42:53;;;;;;;;;5.33;5.33;16.90;99.90;;;;;;4991149;28;9536;-64
2022/10/01 08:45:35;;;;;;;;;4.00;4.00;16.90;99.90;;;;;;5014762;28;9468;-64
2022/10/01 08:48:45;;;;;;;;;6.00;4.00;16.80;99.90;;;;;;5000987;28;9480;-64
2022/10/01 08:52:02;;;;;;;;;4.67;4.67;16.80;99.90;;;;;;5004750;28;10182;-63
2022/10/01 08:54:50;;;;;;;;;5.33;5.33;16.90;99.90;;;;;;5004129;28;9547;-64
2022/10/01 08:57:30;;;;;;;;;5.00;5.00;16.90;99.90;;;;;;4985856;28;9554;-63
2022/10/01 09:00:06;;;;;;;;;6.75;5.75;16.60;99.90;;;;;;5002257;28;9524;-64
2022/10/01 09:02:42;;;;;;;;;6.25;6.25;16.60;99.90;;;;;;5005720;28;9744;-64
2022/10/01 09:05:31;;;;;;;;;3.25;3.25;16.70;99.90;;;;;;5000114;28;9634;-54
2022/10/01 09:08:44;;;;;;;;;4.25;4.25;16.50;99.90;;;;;;4997793;28;9724;-62
2022/10/01 09:11:30;;;;;;;;;4.25;4.25;16.40;99.90;;;;;;5004957;28;9793;-63
2022/10/01 09:14:12;;;;;;;;;4.00;4.00;16.50;99.90;;;;;;5001668;28;10107;-55
2022/10/01 09:17:18;;;;;;;;;5.33;5.33;16.50;99.90;;;;;;5001481;28;9544;-55
2022/10/01 09:20:16;;;;;;;;;6.00;6.00;16.60;99.90;;;;;;5009018;28;9593;-56
2022/10/01 09:23:03;;;;;;;;;6.00;6.00;16.60;99.90;;;;;;4999530;28;9547;-57
2022/10/01 09:25:36;;;;;;;;;5.75;5.75;16.50;99.90;;;;;;5000463;28;9627;-54
2022/10/01 09:28:35;;;;;;;;;6.00;6.00;16.40;99.90;;;;;;5002325;28;9712;-63
2022/10/01 09:31:16;;;;;;;;;3.25;3.25;16.50;99.90;;;;;;4980338;28;9888;-63
2022/10/01 09:34:22;;;;;;;;;4.00;4.00;16.60;99.90;;;;;;4995586;28;10476;-56
2022/10/01 09:37:13;;;;;;;;;4.00;4.00;16.70;99.90;;;;;;4970899;28;9658;-54
2022/10/01 09:40:08;;;;;;;;;5.25;5.25;16.50;99.90;;;;;;5000677;28;9619;-63
2022/10/01 09:42:39;;;;;;;;;4.25;4.25;16.40;99.90;;;;;;5002445;28;9686;-63
2022/10/01 09:45:18;;;;;;;;;6.00;6.00;16.30;99.90;;;;;;5008111;28;10481;-56
2022/10/01 09:47:50;;;;;;;;;4.00;4.00;16.40;99.90;;;;;;4994554;28;10438;-54
2022/10/01 09:50:40;;;;;;;;;0.00;0.00;16.40;99.90;;;;;;4991569;28;9537;-54
2022/10/01 09:53:20;;;;;;;;;6.00;6.00;16.30;99.90;;;;;;5004483;28;9621;-55
2022/10/01 09:55:58;;;;;;;;;5.25;5.25;16.30;99.90;;;;;;5021550;28;9679;-55
2022/10/01 09:58:30;;;;;;;;;5.25;5.25;16.40;99.90;;;;;;5003248;28;9765;-64
2022/10/01 10:01:00;;;;;;;;;7.00;7.00;16.50;99.90;;;;;;5009062;28;9941;-63
2022/10/01 10:03:32;;;;;;;;;7.25;7.25;16.30;99.90;;;;;;5002146;28;9806;-63
2022/10/01 10:06:05;;;;;;;;;4.75;4.75;16.30;99.90;;;;;;5005038;28;9920;-64
2022/10/01 10:08:39;;;;;;;;;5.75;5.75;16.30;99.90;;;;;;5006569;28;10153;-63
2022/10/01 10:11:11;;;;;;;;;7.75;7.75;16.20;99.90;;;;;;5000318;28;10856;-64
2022/10/01 10:13:49;;;;;;;;;6.00;6.00;16.10;99.90;;;;;;5006368;28;10012;-54
2022/10/01 10:16:34;;;;;;;;;7.25;7.25;16.00;99.90;;;;;;5005611;28;9961;-57
2022/10/01 10:19:16;;;;;;;;;9.00;9.00;15.90;99.90;;;;;;5009444;28;10529;-64
2022/10/01 10:21:56;;;;;;;;;9.25;9.25;15.90;99.90;;;;;;4983142;28;10075;-64
2022/10/01 10:24:39;;;;;;;;;11.25;11.25;15.90;99.90;;;;;;4997640;28;10368;-55
2022/10/01 10:27:26;;;;;;;;;11.00;11.00;16.00;99.90;;;;;;4979758;28;10550;-55
2022/10/01 10:30:15;;;;;;;;;9.75;9.75;15.90;99.90;;;;;;4990808;28;10658;-63
2022/10/01 10:32:48;;;;;;;;;12.50;12.50;16.00;99.90;;;;;;4985800;28;10371;-63
2022/10/01 10:35:25;;;;;;;;;9.25;9.25;16.10;99.90;;;;;;4994196;28;10714;-64
2022/10/01 10:37:57;;;;;;;;;8.50;8.50;16.00;99.90;;;;;;5003208;28;10330;-64
2022/10/01 10:40:43;;;;;;;;;9.75;9.75;16.10;99.90;;;;;;5003594;28;10488;-64
2022/10/01 10:43:26;;;;;;;;;8.25;8.25;15.90;99.90;;;;;;4998542;28;10564;-64
2022/10/01 10:45:58;;;;;;;;;7.75;7.75;15.80;99.90;;;;;;5003403;28;10450;-65
2022/10/01 10:48:35;;;;;;;;;7.00;7.00;15.90;99.90;;;;;;5001410;28;10165;-63
2022/10/01 10:51:05;;;;;;;;;5.75;5.75;15.80;99.90;;;;;;4996684;28;10614;-64
2022/10/01 10:53:45;;;;;;;;;6.00;6.00;15.90;99.90;;;;;;5006001;28;10169;-64
2022/10/01 10:56:24;;;;;;;;;7.00;7.00;15.70;99.90;;;;;;4978357;28;10018;-63
2022/10/01 10:58:54;;;;;;;;;7.50;6.75;15.60;99.90;;;;;;4999414;28;10128;-64
2022/10/01 11:01:29;;;;;;;;;6.00;6.00;15.50;99.90;;;;;;4986806;28;10592;-63
2022/10/01 11:04:02;;;;;;;;;5.75;5.25;15.50;99.90;;;;;;5007605;28;9946;-54
2022/10/01 11:06:37;;;;;;;;;7.00;7.00;15.40;99.90;;;;;;5006198;28;10834;-54
2022/10/01 11:09:11;;;;;;;;;5.00;5.00;15.30;99.90;;;;;;5001895;28;10019;-56
2022/10/01 11:11:52;;;;;;;;;6.00;6.00;15.20;99.90;;;;;;4995834;28;10097;-56
2022/10/01 11:14:38;;;;;;;;;6.75;6.75;15.30;99.90;;;;;;5002325;28;10888;-51
2022/10/01 11:17:46;;;;;;;;;7.00;7.00;15.20;99.90;;;;;;4998747;28;10076;-55
2022/10/01 11:20:24;;;;;;;;;6.00;6.00;15.10;99.90;;;;;;4998816;28;10104;-56
2022/10/01 11:23:05;;;;;;;;;6.50;4.75;15.20;99.90;;;;;;5001835;28;10811;-57
2022/10/01 11:26:19;;;;;;;;;6.75;6.75;15.20;99.90;;;;;;4993730;28;9965;-55
2022/10/01 11:29:07;;;;;;;;;8.00;8.00;15.10;99.90;;;;;;5005681;28;10143;-56
2022/10/01 11:32:23;;;;;;;;;6.50;6.50;15.00;99.90;;;;;;5005163;28;10168;-55
2022/10/01 11:35:04;;;;;;;;;7.00;7.00;15.00;99.90;;;;;;4982223;28;10021;-55
2022/10/01 11:37:47;;;;;;;;;7.25;6.00;15.00;99.90;;;;;;4998355;28;10076;-56
2022/10/01 11:40:35;;;;;;;;;6.50;5.00;15.10;99.90;;;;;;5007068;28;10136;-64
2022/10/01 11:43:32;;;;;;;;;6.00;6.00;15.10;99.90;;;;;;4985230;28;9936;-63
2022/10/01 11:46:33;;;;;;;;;6.00;6.00;15.10;99.90;;;;;;4999285;28;10085;-63
2022/10/01 11:49:24;;;;;;;;;7.50;7.50;15.10;99.90;;;;;;4999874;28;9997;-54
2022/10/01 11:52:18;;;;;;;;;4.00;4.00;15.10;99.90;;;;;;5002408;28;10152;-55
2022/10/01 11:54:58;;;;;;;;;7.00;7.00;15.00;99.90;;;;;;5009846;28;10160;-63
2022/10/01 12:00:19;;;;;;;;;6.00;6.00;14.90;99.90;;;;;;5006475;28;10201;-64
2022/10/01 12:03:01;;;;;;;;;7.00;7.00;15.00;99.90;;;;;;5009205;28;12576;-57
2022/10/01 12:05:33;;;;;;;;;7.50;7.50;15.20;99.90;;;;;;4999667;28;10864;-54
2022/10/01 12:08:11;;;;;;;;;7.00;7.00;14.90;99.90;;;;;;5004786;28;10074;-55
2022/10/01 12:11:17;;;;;;;;;9.25;9.25;15.00;99.90;;;;;;5007698;28;10161;-54
2022/10/01 12:13:57;;;;;;;;;7.25;7.25;14.80;99.90;;;;;;5009124;28;10126;-63
2022/10/01 12:16:41;;;;;;;;;9.00;9.00;14.70;99.90;;;;;;4986424;28;10144;-63
2022/10/01 12:19:34;;;;;;;;;7.50;7.50;14.80;99.90;;;;;;5004120;28;10286;-56
2022/10/01 12:22:16;;;;;;;;;7.50;7.50;14.70;99.90;;;;;;5002179;28;10233;-56
2022/10/01 12:24:53;;;;;;;;;8.25;7.25;14.80;99.90;;;;;;4999964;28;10269;-56
2022/10/01 12:27:47;;;;;;;;;7.00;7.00;14.60;99.90;;;;;;5003834;28;10343;-55
2022/10/01 12:30:28;;;;;;;;;6.25;6.25;14.50;99.90;;;;;;4984003;28;10364;-55
2022/10/01 12:33:17;;;;;;;;;5.00;5.00;14.60;99.90;;;;;;5010825;28;10471;-55
2022/10/01 12:36:02;;;;;;;;;8.00;8.00;14.60;99.90;;;;;;4999046;28;10516;-55
2022/10/01 12:39:09;;;;;;;;;6.75;6.75;14.50;99.90;;;;;;4986584;28;10414;-55
2022/10/01 12:42:30;;;;;;;;;8.00;7.50;14.50;99.90;;;;;;5001421;28;10224;-54
2022/10/01 12:45:29;;;;;;;;;7.00;7.00;14.60;99.90;;;;;;4971890;28;11108;-63
2022/10/01 12:48:05;;;;;;;;;8.50;8.50;14.60;99.90;;;;;;5001182;28;11197;-55
2022/10/01 12:50:47;;;;;;;;;5.75;5.75;14.70;99.90;;;;;;4986095;28;10558;-56
2022/10/01 12:53:37;;;;;;;;;7.25;7.25;14.70;99.90;;;;;;5007034;28;10675;-65
2022/10/01 12:56:28;;;;;;;;;7.25;7.25;14.90;99.90;;;;;;5000135;28;10475;-64
2022/10/01 12:59:23;;;;;;;;;8.00;6.50;14.90;99.90;;;;;;5007675;28;10383;-55
2022/10/01 13:02:21;;;;;;;;;8.50;8.50;15.10;99.90;;;;;;5001634;28;10315;-54
2022/10/01 13:05:12;;;;;;;;;5.00;5.00;15.10;99.90;;;;;;5006531;28;10371;-54
2022/10/01 13:08:03;;;;;;;;;4.75;4.75;15.10;99.90;;;;;;5005405;28;10527;-54
2022/10/01 13:10:56;;;;;;;;;8.25;6.00;15.60;99.90;;;;;;5003301;28;10501;-53
2022/10/01 13:13:34;;;;;;;;;6.75;6.75;15.40;99.90;;;;;;5006903;28;11590;-53
2022/10/01 13:16:37;;;;;;;;;5.75;5.75;15.50;99.90;;;;;;5004896;28;10295;-56
2022/10/01 13:19:28;;;;;;;;;6.50;6.50;15.90;99.90;;;;;;5013559;28;10385;-56
2022/10/01 13:22:24;;;;;;;;;6.75;6.75;15.80;99.90;;;;;;5001561;28;10149;-55
2022/10/01 13:25:18;;;;;;;;;5.75;5.75;15.60;99.90;;;;;;5002707;28;10256;-63
2022/10/01 13:28:03;;;;;;;;;3.00;3.00;15.70;99.90;;;;;;4980928;28;10330;-62
2022/10/01 13:30:50;;;;;;;;;5.50;5.50;15.70;99.90;;;;;;5002550;28;10476;-64
2022/10/01 13:33:34;;;;;;;;;6.00;6.00;15.90;99.90;;;;;;5002157;28;10431;-53
2022/10/01 13:36:08;;;;;;;;;3.00;3.00;16.20;99.90;;;;;;5001455;28;10232;-54
2022/10/01 13:38:38;;;;;;;;;5.00;5.00;16.20;99.90;;;;;;4982517;28;10396;-53
2022/10/01 13:41:22;;;;;;;;;5.50;5.50;16.20;99.90;;;;;;4986471;28;10168;-55
2022/10/01 13:44:19;;;;;;;;;6.00;6.00;16.40;99.90;;;;;;4994725;28;10264;-63
2022/10/01 13:47:05;;;;;;;;;6.50;6.50;16.50;99.90;;;;;;5006435;28;10210;-64
2022/10/01 13:49:41;;;;;;;;;6.75;6.75;16.70;99.90;;;;;;4998546;28;10157;-54
2022/10/01 13:52:20;;;;;;;;;5.25;5.25;16.70;99.90;;;;;;4998486;28;10285;-52
2022/10/01 13:54:55;;;;;;;;;5.00;5.00;16.60;99.90;;;;;;5000773;28;10071;-53